This demonstration page uses our WeatherBlox Daily Observations layout. Learn more.

39.29038, -76.61219

Hourly Observations for July 28, 2018

Temp ( °F °C ) Dew Point ( °F °C ) Humidity (%) Winds ( mph kmh ) Pressure ( in mb ) Visibility ( mi km ) Precip ( " mm )
12:54 am 00:54 undefined 74 23.3 71 21.7 91 91 undefined N/A N/A N/A 0 0
1:54 am 01:54 undefined 74 23.3 71 21.7 91 91 undefined N/A N/A N/A 0 0
2:54 am 02:54 undefined 73 22.8 70 21.1 90 90 undefined N/A N/A N/A 0 0
3:54 am 03:54 undefined 74 23.3 70 21.1 88 88 undefined N/A N/A N/A 0 0
4:54 am 04:54 undefined 73 22.8 69 20.6 87 87 undefined N/A N/A N/A 0 0
5:54 am 05:54 undefined 73 22.8 70 21.1 90 90 undefined N/A N/A N/A 0 0
6:54 am 06:54 undefined 73 22.8 70 21.1 90 90 undefined N/A N/A N/A 0 0
7:54 am 07:54 undefined 75 23.9 70 21.1 84 84 undefined N/A N/A N/A 0 0
8:54 am 08:54 undefined 78 25.6 70 21.1 76 76 undefined N/A N/A N/A 0 0
9:54 am 09:54 undefined 80 26.7 68 20 67 67 undefined N/A N/A N/A 0 0
10:54 am 10:54 undefined 82 27.8 67 19.4 60 60 undefined N/A N/A N/A 0 0
11:54 am 11:54 undefined 85 29.4 64 17.8 50 50 undefined N/A N/A N/A 0 0
12:54 pm 12:54 undefined 86 30 61 16.1 43 43 undefined N/A N/A N/A 0 0
1:54 pm 13:54 undefined 86 30 60 15.6 42 42 undefined N/A N/A N/A 0 0
2:54 pm 14:54 undefined 87 30.6 59 15 39 39 undefined N/A N/A N/A 0 0
3:54 pm 15:54 undefined 88 31.1 56 13.3 34 34 undefined N/A N/A N/A 0 0
4:54 pm 16:54 undefined 88 31.1 60 15.6 39 39 undefined N/A N/A N/A 0 0
5:54 pm 17:54 undefined 86 30 58 14.4 39 39 undefined N/A N/A N/A 0 0
6:54 pm 18:54 undefined 85 29.4 59 15 42 42 undefined N/A N/A N/A 0 0
7:54 pm 19:54 undefined 84 28.9 60 15.6 44 44 undefined N/A N/A N/A 0 0
8:54 pm 20:54 undefined 83 28.3 61 16.1 48 48 undefined N/A N/A N/A 0 0
9:54 pm 21:54 undefined 81 27.2 62 16.7 53 53 undefined N/A N/A N/A 0 0
10:54 pm 22:54 undefined 80 26.7 63 17.2 56 56 undefined N/A N/A N/A 0 0
11:54 pm 23:54 undefined 79 26.1 63 17.2 58 58 undefined N/A N/A N/A 0 0

Powered by AerisWeather